sensor_id;sensor_type;location;lat;lon;timestamp;P1;durP1;ratioP1;P2;durP2;ratioP2
16826;SDS011;8530;49.540;8.576;2023-11-19T00:00:50;7.63;;;6.60;;
16826;SDS011;8530;49.540;8.576;2023-11-19T00:03:18;6.50;;;5.73;;
16826;SDS011;8530;49.540;8.576;2023-11-19T00:05:45;7.07;;;5.93;;
16826;SDS011;8530;49.540;8.576;2023-11-19T00:08:12;9.10;;;5.87;;
16826;SDS011;8530;49.540;8.576;2023-11-19T00:10:38;9.00;;;6.23;;
16826;SDS011;8530;49.540;8.576;2023-11-19T00:13:05;7.00;;;6.30;;
16826;SDS011;8530;49.540;8.576;2023-11-19T00:15:33;8.73;;;6.27;;
16826;SDS011;8530;49.540;8.576;2023-11-19T00:17:59;11.67;;;6.00;;
16826;SDS011;8530;49.540;8.576;2023-11-19T00:20:30;6.97;;;6.27;;
16826;SDS011;8530;49.540;8.576;2023-11-19T00:22:57;7.90;;;6.40;;
16826;SDS011;8530;49.540;8.576;2023-11-19T00:25:24;8.90;;;6.37;;
16826;SDS011;8530;49.540;8.576;2023-11-19T00:27:51;5.87;;;5.10;;
16826;SDS011;8530;49.540;8.576;2023-11-19T00:30:18;6.30;;;5.57;;
16826;SDS011;8530;49.540;8.576;2023-11-19T00:32:45;6.60;;;5.70;;
16826;SDS011;8530;49.540;8.576;2023-11-19T00:35:12;6.60;;;5.10;;
16826;SDS011;8530;49.540;8.576;2023-11-19T00:37:41;6.00;;;5.40;;
16826;SDS011;8530;49.540;8.576;2023-11-19T00:40:10;6.00;;;5.40;;
16826;SDS011;8530;49.540;8.576;2023-11-19T00:42:37;7.70;;;5.00;;
16826;SDS011;8530;49.540;8.576;2023-11-19T00:45:04;5.30;;;4.80;;
16826;SDS011;8530;49.540;8.576;2023-11-19T00:47:34;5.00;;;4.60;;
16826;SDS011;8530;49.540;8.576;2023-11-19T00:50:01;6.27;;;5.00;;
16826;SDS011;8530;49.540;8.576;2023-11-19T00:52:28;7.87;;;5.20;;
16826;SDS011;8530;49.540;8.576;2023-11-19T00:54:56;6.00;;;4.50;;
16826;SDS011;8530;49.540;8.576;2023-11-19T00:57:22;5.50;;;5.00;;
16826;SDS011;8530;49.540;8.576;2023-11-19T00:59:51;5.23;;;4.70;;
16826;SDS011;8530;49.540;8.576;2023-11-19T01:02:18;4.80;;;4.30;;
16826;SDS011;8530;49.540;8.576;2023-11-19T01:04:44;4.90;;;4.40;;
16826;SDS011;8530;49.540;8.576;2023-11-19T01:07:11;5.77;;;5.27;;
16826;SDS011;8530;49.540;8.576;2023-11-19T01:09:38;4.73;;;4.30;;
16826;SDS011;8530;49.540;8.576;2023-11-19T01:12:08;4.17;;;3.73;;
16826;SDS011;8530;49.540;8.576;2023-11-19T01:14:36;6.20;;;3.57;;
16826;SDS011;8530;49.540;8.576;2023-11-19T01:17:03;5.13;;;3.10;;
16826;SDS011;8530;49.540;8.576;2023-11-19T01:19:30;4.10;;;2.80;;
16826;SDS011;8530;49.540;8.576;2023-11-19T01:21:57;4.07;;;3.77;;
16826;SDS011;8530;49.540;8.576;2023-11-19T01:24:24;3.10;;;2.90;;
16826;SDS011;8530;49.540;8.576;2023-11-19T01:26:53;3.93;;;3.23;;
16826;SDS011;8530;49.540;8.576;2023-11-19T01:29:21;7.93;;;3.33;;
16826;SDS011;8530;49.540;8.576;2023-11-19T01:31:48;3.73;;;3.40;;
16826;SDS011;8530;49.540;8.576;2023-11-19T01:34:16;3.83;;;3.50;;
16826;SDS011;8530;49.540;8.576;2023-11-19T01:36:43;8.00;;;3.23;;
16826;SDS011;8530;49.540;8.576;2023-11-19T01:39:11;5.57;;;3.10;;
16826;SDS011;8530;49.540;8.576;2023-11-19T01:41:41;5.80;;;4.10;;
16826;SDS011;8530;49.540;8.576;2023-11-19T01:44:07;4.13;;;3.57;;
16826;SDS011;8530;49.540;8.576;2023-11-19T01:46:36;6.93;;;3.30;;
16826;SDS011;8530;49.540;8.576;2023-11-19T01:49:04;5.10;;;3.77;;
16826;SDS011;8530;49.540;8.576;2023-11-19T01:51:31;4.13;;;3.43;;
16826;SDS011;8530;49.540;8.576;2023-11-19T01:53:59;4.43;;;3.07;;
16826;SDS011;8530;49.540;8.576;2023-11-19T01:56:27;3.87;;;2.90;;
16826;SDS011;8530;49.540;8.576;2023-11-19T01:58:55;3.97;;;3.67;;
16826;SDS011;8530;49.540;8.576;2023-11-19T02:01:23;4.17;;;3.07;;
16826;SDS011;8530;49.540;8.576;2023-11-19T02:03:52;3.07;;;2.87;;
16826;SDS011;8530;49.540;8.576;2023-11-19T02:06:18;2.47;;;2.23;;
16826;SDS011;8530;49.540;8.576;2023-11-19T02:08:45;3.67;;;2.57;;
16826;SDS011;8530;49.540;8.576;2023-11-19T02:11:12;3.63;;;3.33;;
16826;SDS011;8530;49.540;8.576;2023-11-19T02:13:39;3.83;;;2.27;;
16826;SDS011;8530;49.540;8.576;2023-11-19T02:16:08;2.13;;;2.00;;
16826;SDS011;8530;49.540;8.576;2023-11-19T02:18:36;2.30;;;2.10;;
16826;SDS011;8530;49.540;8.576;2023-11-19T02:21:05;3.03;;;2.50;;
16826;SDS011;8530;49.540;8.576;2023-11-19T02:23:32;2.43;;;2.23;;
16826;SDS011;8530;49.540;8.576;2023-11-19T02:26:03;2.90;;;2.70;;
16826;SDS011;8530;49.540;8.576;2023-11-19T02:28:37;2.77;;;2.57;;
16826;SDS011;8530;49.540;8.576;2023-11-19T02:31:05;2.60;;;2.40;;
16826;SDS011;8530;49.540;8.576;2023-11-19T02:33:34;3.33;;;2.97;;
16826;SDS011;8530;49.540;8.576;2023-11-19T02:36:01;3.30;;;2.77;;
16826;SDS011;8530;49.540;8.576;2023-11-19T02:38:28;3.60;;;2.50;;
16826;SDS011;8530;49.540;8.576;2023-11-19T02:40:55;3.33;;;2.60;;
16826;SDS011;8530;49.540;8.576;2023-11-19T02:43:23;4.37;;;3.30;;
16826;SDS011;8530;49.540;8.576;2023-11-19T02:45:51;4.20;;;2.90;;
16826;SDS011;8530;49.540;8.576;2023-11-19T02:48:20;2.73;;;2.53;;
16826;SDS011;8530;49.540;8.576;2023-11-19T02:50:47;5.13;;;3.43;;
16826;SDS011;8530;49.540;8.576;2023-11-19T02:53:14;3.60;;;3.30;;
16826;SDS011;8530;49.540;8.576;2023-11-19T02:55:41;3.43;;;2.90;;
16826;SDS011;8530;49.540;8.576;2023-11-19T02:58:13;3.40;;;3.10;;
16826;SDS011;8530;49.540;8.576;2023-11-19T03:00:48;4.00;;;3.10;;
16826;SDS011;8530;49.540;8.576;2023-11-19T03:03:23;4.33;;;3.07;;
16826;SDS011;8530;49.540;8.576;2023-11-19T03:05:53;6.43;;;3.80;;
16826;SDS011;8530;49.540;8.576;2023-11-19T03:08:20;3.07;;;2.77;;
16826;SDS011;8530;49.540;8.576;2023-11-19T03:10:47;3.40;;;2.67;;
16826;SDS011;8530;49.540;8.576;2023-11-19T03:13:14;3.57;;;3.20;;
16826;SDS011;8530;49.540;8.576;2023-11-19T03:15:42;3.43;;;3.13;;
16826;SDS011;8530;49.540;8.576;2023-11-19T03:18:08;3.07;;;2.77;;
16826;SDS011;8530;49.540;8.576;2023-11-19T03:20:37;2.87;;;2.67;;
16826;SDS011;8530;49.540;8.576;2023-11-19T03:23:03;4.17;;;2.90;;
16826;SDS011;8530;49.540;8.576;2023-11-19T03:25:31;3.57;;;3.13;;
16826;SDS011;8530;49.540;8.576;2023-11-19T03:27:59;3.30;;;3.00;;
16826;SDS011;8530;49.540;8.576;2023-11-19T03:30:26;3.50;;;3.10;;
16826;SDS011;8530;49.540;8.576;2023-11-19T03:32:54;3.53;;;3.23;;
16826;SDS011;8530;49.540;8.576;2023-11-19T03:35:21;3.50;;;3.20;;
16826;SDS011;8530;49.540;8.576;2023-11-19T03:37:49;3.10;;;2.80;;
16826;SDS011;8530;49.540;8.576;2023-11-19T03:40:16;2.80;;;2.60;;
16826;SDS011;8530;49.540;8.576;2023-11-19T03:42:44;4.77;;;3.30;;
16826;SDS011;8530;49.540;8.576;2023-11-19T03:45:11;3.70;;;2.77;;
16826;SDS011;8530;49.540;8.576;2023-11-19T03:47:37;5.77;;;3.63;;
16826;SDS011;8530;49.540;8.576;2023-11-19T03:50:05;3.50;;;3.20;;
16826;SDS011;8530;49.540;8.576;2023-11-19T03:52:33;3.50;;;3.20;;
16826;SDS011;8530;49.540;8.576;2023-11-19T03:55:01;2.80;;;2.60;;
16826;SDS011;8530;49.540;8.576;2023-11-19T03:57:29;3.73;;;2.70;;
16826;SDS011;8530;49.540;8.576;2023-11-19T03:59:55;4.30;;;3.00;;
16826;SDS011;8530;49.540;8.576;2023-11-19T04:02:23;2.70;;;2.50;;
16826;SDS011;8530;49.540;8.576;2023-11-19T04:04:52;4.03;;;3.20;;
16826;SDS011;8530;49.540;8.576;2023-11-19T04:07:19;3.90;;;3.17;;
16826;SDS011;8530;49.540;8.576;2023-11-19T04:09:46;3.67;;;3.20;;
16826;SDS011;8530;49.540;8.576;2023-11-19T04:12:14;3.87;;;2.47;;
16826;SDS011;8530;49.540;8.576;2023-11-19T04:14:41;3.27;;;2.97;;
16826;SDS011;8530;49.540;8.576;2023-11-19T04:17:07;2.83;;;2.63;;
16826;SDS011;8530;49.540;8.576;2023-11-19T04:19:34;2.77;;;2.57;;
16826;SDS011;8530;49.540;8.576;2023-11-19T04:22:01;3.87;;;3.00;;
16826;SDS011;8530;49.540;8.576;2023-11-19T04:24:28;2.97;;;2.77;;
16826;SDS011;8530;49.540;8.576;2023-11-19T04:26:54;3.47;;;3.17;;
16826;SDS011;8530;49.540;8.576;2023-11-19T04:29:22;3.13;;;2.93;;
16826;SDS011;8530;49.540;8.576;2023-11-19T04:31:49;3.20;;;2.90;;
16826;SDS011;8530;49.540;8.576;2023-11-19T04:34:16;3.83;;;3.50;;
16826;SDS011;8530;49.540;8.576;2023-11-19T04:36:42;3.30;;;2.90;;
16826;SDS011;8530;49.540;8.576;2023-11-19T04:39:09;4.10;;;3.57;;
16826;SDS011;8530;49.540;8.576;2023-11-19T04:41:41;3.37;;;3.13;;
16826;SDS011;8530;49.540;8.576;2023-11-19T04:44:12;3.43;;;3.13;;
16826;SDS011;8530;49.540;8.576;2023-11-19T04:46:40;2.60;;;2.40;;
16826;SDS011;8530;49.540;8.576;2023-11-19T04:49:08;3.97;;;3.07;;
16826;SDS011;8530;49.540;8.576;2023-11-19T04:51:37;2.80;;;2.60;;
16826;SDS011;8530;49.540;8.576;2023-11-19T04:54:05;2.63;;;2.43;;
16826;SDS011;8530;49.540;8.576;2023-11-19T04:56:33;3.30;;;2.60;;
16826;SDS011;8530;49.540;8.576;2023-11-19T04:59:00;2.50;;;2.30;;
16826;SDS011;8530;49.540;8.576;2023-11-19T05:01:27;5.43;;;4.13;;
16826;SDS011;8530;49.540;8.576;2023-11-19T05:03:55;5.50;;;3.57;;
16826;SDS011;8530;49.540;8.576;2023-11-19T05:06:25;3.20;;;2.90;;
16826;SDS011;8530;49.540;8.576;2023-11-19T05:08:53;3.33;;;2.97;;
16826;SDS011;8530;49.540;8.576;2023-11-19T05:11:20;12.00;;;3.07;;
16826;SDS011;8530;49.540;8.576;2023-11-19T05:13:47;5.67;;;3.57;;
16826;SDS011;8530;49.540;8.576;2023-11-19T05:16:13;3.07;;;2.83;;
16826;SDS011;8530;49.540;8.576;2023-11-19T05:18:40;3.73;;;2.80;;
16826;SDS011;8530;49.540;8.576;2023-11-19T05:21:08;3.27;;;2.97;;
16826;SDS011;8530;49.540;8.576;2023-11-19T05:23:35;3.13;;;2.57;;
16826;SDS011;8530;49.540;8.576;2023-11-19T05:26:02;4.77;;;4.03;;
16826;SDS011;8530;49.540;8.576;2023-11-19T05:28:29;5.97;;;3.07;;
16826;SDS011;8530;49.540;8.576;2023-11-19T05:30:55;3.37;;;3.00;;
16826;SDS011;8530;49.540;8.576;2023-11-19T05:33:22;6.03;;;2.93;;
16826;SDS011;8530;49.540;8.576;2023-11-19T05:35:49;3.47;;;3.17;;
16826;SDS011;8530;49.540;8.576;2023-11-19T05:38:17;3.63;;;3.30;;
16826;SDS011;8530;49.540;8.576;2023-11-19T05:40:44;3.70;;;3.00;;
16826;SDS011;8530;49.540;8.576;2023-11-19T05:43:13;4.03;;;3.23;;
16826;SDS011;8530;49.540;8.576;2023-11-19T05:45:40;4.87;;;2.50;;
16826;SDS011;8530;49.540;8.576;2023-11-19T05:48:06;4.10;;;2.83;;
16826;SDS011;8530;49.540;8.576;2023-11-19T05:50:34;5.73;;;3.37;;
16826;SDS011;8530;49.540;8.576;2023-11-19T05:53:01;3.33;;;2.73;;
16826;SDS011;8530;49.540;8.576;2023-11-19T05:55:33;5.03;;;3.50;;
16826;SDS011;8530;49.540;8.576;2023-11-19T05:58:00;3.53;;;3.23;;
16826;SDS011;8530;49.540;8.576;2023-11-19T06:00:28;3.50;;;3.20;;
16826;SDS011;8530;49.540;8.576;2023-11-19T06:02:55;3.30;;;3.00;;
16826;SDS011;8530;49.540;8.576;2023-11-19T06:05:22;5.57;;;2.93;;
16826;SDS011;8530;49.540;8.576;2023-11-19T06:07:49;3.47;;;2.97;;
16826;SDS011;8530;49.540;8.576;2023-11-19T06:10:16;3.30;;;2.60;;
16826;SDS011;8530;49.540;8.576;2023-11-19T06:12:45;3.07;;;2.77;;
16826;SDS011;8530;49.540;8.576;2023-11-19T06:15:12;4.37;;;3.00;;
16826;SDS011;8530;49.540;8.576;2023-11-19T06:17:39;2.80;;;2.60;;
16826;SDS011;8530;49.540;8.576;2023-11-19T06:20:06;4.23;;;3.33;;
16826;SDS011;8530;49.540;8.576;2023-11-19T06:22:33;2.57;;;2.37;;
16826;SDS011;8530;49.540;8.576;2023-11-19T06:25:01;3.17;;;2.87;;
16826;SDS011;8530;49.540;8.576;2023-11-19T06:27:32;2.70;;;2.50;;
16826;SDS011;8530;49.540;8.576;2023-11-19T06:30:00;3.00;;;2.50;;
16826;SDS011;8530;49.540;8.576;2023-11-19T06:32:26;3.57;;;2.47;;
16826;SDS011;8530;49.540;8.576;2023-11-19T06:34:54;4.10;;;3.50;;
16826;SDS011;8530;49.540;8.576;2023-11-19T06:37:22;2.80;;;2.50;;
16826;SDS011;8530;49.540;8.576;2023-11-19T06:39:49;2.40;;;2.20;;
16826;SDS011;8530;49.540;8.576;2023-11-19T06:42:15;2.73;;;2.53;;
16826;SDS011;8530;49.540;8.576;2023-11-19T06:44:43;4.20;;;2.73;;
16826;SDS011;8530;49.540;8.576;2023-11-19T06:47:11;3.13;;;2.50;;
16826;SDS011;8530;49.540;8.576;2023-11-19T06:49:38;2.80;;;2.43;;
16826;SDS011;8530;49.540;8.576;2023-11-19T06:52:05;4.20;;;2.77;;
16826;SDS011;8530;49.540;8.576;2023-11-19T06:54:31;4.60;;;2.90;;
16826;SDS011;8530;49.540;8.576;2023-11-19T06:56:58;7.27;;;2.80;;
16826;SDS011;8530;49.540;8.576;2023-11-19T06:59:25;4.03;;;2.90;;
16826;SDS011;8530;49.540;8.576;2023-11-19T07:01:51;4.33;;;3.20;;
16826;SDS011;8530;49.540;8.576;2023-11-19T07:04:20;3.80;;;2.87;;
16826;SDS011;8530;49.540;8.576;2023-11-19T07:06:46;4.73;;;2.80;;
16826;SDS011;8530;49.540;8.576;2023-11-19T07:09:14;4.17;;;2.47;;
16826;SDS011;8530;49.540;8.576;2023-11-19T07:11:41;4.50;;;2.93;;
16826;SDS011;8530;49.540;8.576;2023-11-19T07:14:09;7.10;;;2.60;;
16826;SDS011;8530;49.540;8.576;2023-11-19T07:16:36;2.67;;;2.47;;
16826;SDS011;8530;49.540;8.576;2023-11-19T07:19:03;2.67;;;2.47;;
16826;SDS011;8530;49.540;8.576;2023-11-19T07:21:32;4.67;;;3.00;;
16826;SDS011;8530;49.540;8.576;2023-11-19T07:24:00;4.60;;;2.50;;
16826;SDS011;8530;49.540;8.576;2023-11-19T07:26:28;3.30;;;3.00;;
16826;SDS011;8530;49.540;8.576;2023-11-19T07:28:54;4.70;;;3.07;;
16826;SDS011;8530;49.540;8.576;2023-11-19T07:31:21;8.00;;;3.33;;
16826;SDS011;8530;49.540;8.576;2023-11-19T07:33:48;10.10;;;4.10;;
16826;SDS011;8530;49.540;8.576;2023-11-19T07:36:14;4.50;;;3.50;;
16826;SDS011;8530;49.540;8.576;2023-11-19T07:38:43;5.30;;;2.47;;
16826;SDS011;8530;49.540;8.576;2023-11-19T07:41:09;11.37;;;3.00;;
16826;SDS011;8530;49.540;8.576;2023-11-19T07:43:38;6.87;;;2.93;;
16826;SDS011;8530;49.540;8.576;2023-11-19T07:46:05;2.90;;;2.60;;
16826;SDS011;8530;49.540;8.576;2023-11-19T07:48:36;3.90;;;2.57;;
16826;SDS011;8530;49.540;8.576;2023-11-19T07:51:03;3.03;;;2.77;;
16826;SDS011;8530;49.540;8.576;2023-11-19T07:53:30;7.03;;;2.50;;
16826;SDS011;8530;49.540;8.576;2023-11-19T07:55:59;5.13;;;2.90;;
16826;SDS011;8530;49.540;8.576;2023-11-19T07:58:25;2.60;;;2.40;;
16826;SDS011;8530;49.540;8.576;2023-11-19T08:00:52;4.17;;;2.87;;
16826;SDS011;8530;49.540;8.576;2023-11-19T08:03:19;5.47;;;2.67;;
16826;SDS011;8530;49.540;8.576;2023-11-19T08:05:47;4.63;;;3.10;;
16826;SDS011;8530;49.540;8.576;2023-11-19T08:08:13;3.23;;;2.20;;
16826;SDS011;8530;49.540;8.576;2023-11-19T08:10:40;3.23;;;2.40;;
16826;SDS011;8530;49.540;8.576;2023-11-19T08:13:10;3.37;;;2.80;;
16826;SDS011;8530;49.540;8.576;2023-11-19T08:15:37;5.60;;;2.40;;
16826;SDS011;8530;49.540;8.576;2023-11-19T08:18:04;2.70;;;2.50;;
16826;SDS011;8530;49.540;8.576;2023-11-19T08:20:32;2.27;;;2.07;;
16826;SDS011;8530;49.540;8.576;2023-11-19T08:22:58;4.97;;;2.60;;
16826;SDS011;8530;49.540;8.576;2023-11-19T08:25:25;3.60;;;3.30;;
16826;SDS011;8530;49.540;8.576;2023-11-19T08:27:53;3.10;;;2.57;;
16826;SDS011;8530;49.540;8.576;2023-11-19T08:30:21;3.03;;;2.37;;
16826;SDS011;8530;49.540;8.576;2023-11-19T08:32:47;2.80;;;2.57;;
16826;SDS011;8530;49.540;8.576;2023-11-19T08:35:14;2.60;;;1.80;;
16826;SDS011;8530;49.540;8.576;2023-11-19T08:37:41;3.13;;;2.00;;
16826;SDS011;8530;49.540;8.576;2023-11-19T08:40:10;2.07;;;1.87;;
16826;SDS011;8530;49.540;8.576;2023-11-19T08:42:40;3.73;;;2.43;;
16826;SDS011;8530;49.540;8.576;2023-11-19T08:45:07;3.57;;;3.00;;
16826;SDS011;8530;49.540;8.576;2023-11-19T08:47:36;3.73;;;2.07;;
16826;SDS011;8530;49.540;8.576;2023-11-19T08:50:03;7.33;;;2.20;;
16826;SDS011;8530;49.540;8.576;2023-11-19T08:52:31;2.77;;;2.20;;
16826;SDS011;8530;49.540;8.576;2023-11-19T08:54:57;5.23;;;2.00;;
16826;SDS011;8530;49.540;8.576;2023-11-19T08:57:24;3.80;;;2.70;;
16826;SDS011;8530;49.540;8.576;2023-11-19T08:59:51;4.00;;;2.00;;
16826;SDS011;8530;49.540;8.576;2023-11-19T09:02:17;3.70;;;2.20;;
16826;SDS011;8530;49.540;8.576;2023-11-19T09:04:45;3.30;;;2.10;;
16826;SDS011;8530;49.540;8.576;2023-11-19T09:07:12;3.73;;;2.93;;
16826;SDS011;8530;49.540;8.576;2023-11-19T09:09:39;3.30;;;2.53;;
16826;SDS011;8530;49.540;8.576;2023-11-19T09:12:06;3.73;;;2.40;;
16826;SDS011;8530;49.540;8.576;2023-11-19T09:14:33;3.50;;;2.40;;
16826;SDS011;8530;49.540;8.576;2023-11-19T09:16:59;3.10;;;2.17;;
16826;SDS011;8530;49.540;8.576;2023-11-19T09:19:26;1.63;;;1.53;;
16826;SDS011;8530;49.540;8.576;2023-11-19T09:21:54;5.80;;;2.07;;
16826;SDS011;8530;49.540;8.576;2023-11-19T09:24:21;3.27;;;2.30;;
16826;SDS011;8530;49.540;8.576;2023-11-19T09:26:48;11.53;;;2.97;;
16826;SDS011;8530;49.540;8.576;2023-11-19T09:29:15;3.10;;;2.60;;
16826;SDS011;8530;49.540;8.576;2023-11-19T09:31:41;3.70;;;2.17;;
16826;SDS011;8530;49.540;8.576;2023-11-19T09:34:08;7.70;;;2.80;;
16826;SDS011;8530;49.540;8.576;2023-11-19T09:36:35;3.43;;;2.20;;
16826;SDS011;8530;49.540;8.576;2023-11-19T09:39:03;5.03;;;2.10;;
16826;SDS011;8530;49.540;8.576;2023-11-19T09:41:30;3.47;;;2.43;;
16826;SDS011;8530;49.540;8.576;2023-11-19T09:43:59;3.37;;;2.30;;
16826;SDS011;8530;49.540;8.576;2023-11-19T09:46:26;8.43;;;3.43;;
16826;SDS011;8530;49.540;8.576;2023-11-19T09:48:54;6.33;;;3.20;;
16826;SDS011;8530;49.540;8.576;2023-11-19T09:51:24;4.73;;;2.80;;
16826;SDS011;8530;49.540;8.576;2023-11-19T09:53:51;3.70;;;3.40;;
16826;SDS011;8530;49.540;8.576;2023-11-19T09:56:19;5.77;;;2.60;;
16826;SDS011;8530;49.540;8.576;2023-11-19T09:58:47;4.00;;;2.13;;
16826;SDS011;8530;49.540;8.576;2023-11-19T10:01:14;4.90;;;2.80;;
16826;SDS011;8530;49.540;8.576;2023-11-19T10:03:41;9.10;;;2.57;;
16826;SDS011;8530;49.540;8.576;2023-11-19T10:06:09;10.60;;;2.50;;
16826;SDS011;8530;49.540;8.576;2023-11-19T10:08:37;3.30;;;1.70;;
16826;SDS011;8530;49.540;8.576;2023-11-19T10:11:04;11.80;;;3.30;;
16826;SDS011;8530;49.540;8.576;2023-11-19T10:13:33;19.13;;;9.00;;
16826;SDS011;8530;49.540;8.576;2023-11-19T10:16:03;13.23;;;7.80;;
16826;SDS011;8530;49.540;8.576;2023-11-19T10:18:30;13.73;;;7.70;;
16826;SDS011;8530;49.540;8.576;2023-11-19T10:21:02;8.77;;;4.80;;
16826;SDS011;8530;49.540;8.576;2023-11-19T10:23:30;8.97;;;6.90;;
16826;SDS011;8530;49.540;8.576;2023-11-19T10:26:02;3.33;;;2.70;;
16826;SDS011;8530;49.540;8.576;2023-11-19T10:28:37;4.77;;;2.37;;
16826;SDS011;8530;49.540;8.576;2023-11-19T10:31:07;5.93;;;2.07;;
16826;SDS011;8530;49.540;8.576;2023-11-19T10:33:34;7.00;;;2.00;;
16826;SDS011;8530;49.540;8.576;2023-11-19T10:36:01;3.17;;;1.70;;
16826;SDS011;8530;49.540;8.576;2023-11-19T10:38:27;9.53;;;2.40;;
16826;SDS011;8530;49.540;8.576;2023-11-19T10:40:55;3.10;;;1.60;;
16826;SDS011;8530;49.540;8.576;2023-11-19T10:43:22;5.80;;;2.00;;
16826;SDS011;8530;49.540;8.576;2023-11-19T10:45:51;4.97;;;2.17;;
16826;SDS011;8530;49.540;8.576;2023-11-19T10:48:18;3.83;;;2.17;;
16826;SDS011;8530;49.540;8.576;2023-11-19T10:50:46;3.93;;;2.10;;
16826;SDS011;8530;49.540;8.576;2023-11-19T10:53:15;4.20;;;2.57;;
16826;SDS011;8530;49.540;8.576;2023-11-19T10:55:45;4.77;;;1.60;;
16826;SDS011;8530;49.540;8.576;2023-11-19T10:58:15;5.13;;;1.60;;
16826;SDS011;8530;49.540;8.576;2023-11-19T11:00:43;1.67;;;1.50;;
16826;SDS011;8530;49.540;8.576;2023-11-19T11:03:15;6.67;;;1.70;;
16826;SDS011;8530;49.540;8.576;2023-11-19T11:05:43;2.87;;;1.60;;
16826;SDS011;8530;49.540;8.576;2023-11-19T11:08:13;4.73;;;1.47;;
16826;SDS011;8530;49.540;8.576;2023-11-19T11:10:42;2.80;;;1.40;;
16826;SDS011;8530;49.540;8.576;2023-11-19T11:13:11;5.03;;;2.20;;
16826;SDS011;8530;49.540;8.576;2023-11-19T11:15:40;10.40;;;3.80;;
16826;SDS011;8530;49.540;8.576;2023-11-19T11:18:08;5.60;;;3.83;;
16826;SDS011;8530;49.540;8.576;2023-11-19T11:20:36;5.90;;;4.10;;
16826;SDS011;8530;49.540;8.576;2023-11-19T11:23:27;7.23;;;5.20;;
16826;SDS011;8530;49.540;8.576;2023-11-19T11:26:23;6.77;;;5.10;;
16826;SDS011;8530;49.540;8.576;2023-11-19T11:29:14;10.07;;;5.83;;
16826;SDS011;8530;49.540;8.576;2023-11-19T11:31:53;8.27;;;4.27;;
16826;SDS011;8530;49.540;8.576;2023-11-19T11:37:21;4.80;;;3.30;;
16826;SDS011;8530;49.540;8.576;2023-11-19T11:39:56;3.73;;;3.43;;
16826;SDS011;8530;49.540;8.576;2023-11-19T11:42:33;4.97;;;2.47;;
16826;SDS011;8530;49.540;8.576;2023-11-19T11:45:01;4.37;;;2.90;;
16826;SDS011;8530;49.540;8.576;2023-11-19T11:50:32;5.83;;;2.27;;
16826;SDS011;8530;49.540;8.576;2023-11-19T11:53:17;5.27;;;3.67;;
16826;SDS011;8530;49.540;8.576;2023-11-19T11:55:57;5.03;;;2.40;;
16826;SDS011;8530;49.540;8.576;2023-11-19T11:58:29;4.43;;;2.30;;
16826;SDS011;8530;49.540;8.576;2023-11-19T12:00:57;2.80;;;2.20;;
16826;SDS011;8530;49.540;8.576;2023-11-19T12:03:26;16.53;;;2.80;;
16826;SDS011;8530;49.540;8.576;2023-11-19T12:05:53;4.40;;;2.40;;
16826;SDS011;8530;49.540;8.576;2023-11-19T12:08:24;3.60;;;2.40;;
16826;SDS011;8530;49.540;8.576;2023-11-19T12:10:53;2.80;;;2.40;;
16826;SDS011;8530;49.540;8.576;2023-11-19T12:13:22;6.77;;;2.70;;
16826;SDS011;8530;49.540;8.576;2023-11-19T12:16:08;4.23;;;2.10;;
16826;SDS011;8530;49.540;8.576;2023-11-19T12:18:36;5.53;;;2.57;;
16826;SDS011;8530;49.540;8.576;2023-11-19T12:21:05;5.03;;;2.33;;
16826;SDS011;8530;49.540;8.576;2023-11-19T12:23:36;3.97;;;2.50;;
16826;SDS011;8530;49.540;8.576;2023-11-19T12:29:04;5.83;;;3.27;;
16826;SDS011;8530;49.540;8.576;2023-11-19T12:31:32;8.83;;;2.33;;
16826;SDS011;8530;49.540;8.576;2023-11-19T12:34:04;11.23;;;2.60;;
16826;SDS011;8530;49.540;8.576;2023-11-19T12:36:33;5.77;;;2.40;;
16826;SDS011;8530;49.540;8.576;2023-11-19T12:39:01;5.60;;;2.57;;
16826;SDS011;8530;49.540;8.576;2023-11-19T12:41:29;3.47;;;2.23;;
16826;SDS011;8530;49.540;8.576;2023-11-19T12:44:08;4.40;;;1.93;;
16826;SDS011;8530;49.540;8.576;2023-11-19T12:46:35;5.97;;;1.93;;
16826;SDS011;8530;49.540;8.576;2023-11-19T12:49:02;3.43;;;2.20;;
16826;SDS011;8530;49.540;8.576;2023-11-19T12:51:32;7.17;;;1.90;;
16826;SDS011;8530;49.540;8.576;2023-11-19T12:53:58;4.57;;;2.33;;
16826;SDS011;8530;49.540;8.576;2023-11-19T12:56:26;7.13;;;2.30;;
16826;SDS011;8530;49.540;8.576;2023-11-19T12:58:54;5.43;;;2.77;;
16826;SDS011;8530;49.540;8.576;2023-11-19T13:01:21;8.53;;;2.80;;
16826;SDS011;8530;49.540;8.576;2023-11-19T13:03:48;6.77;;;2.80;;
16826;SDS011;8530;49.540;8.576;2023-11-19T13:06:16;8.27;;;3.53;;
16826;SDS011;8530;49.540;8.576;2023-11-19T13:08:46;6.27;;;2.73;;
16826;SDS011;8530;49.540;8.576;2023-11-19T13:11:29;6.77;;;3.53;;
16826;SDS011;8530;49.540;8.576;2023-11-19T13:13:59;10.27;;;4.03;;
16826;SDS011;8530;49.540;8.576;2023-11-19T13:16:28;8.83;;;3.20;;
16826;SDS011;8530;49.540;8.576;2023-11-19T13:18:55;4.17;;;2.37;;
16826;SDS011;8530;49.540;8.576;2023-11-19T13:21:22;6.43;;;2.37;;
16826;SDS011;8530;49.540;8.576;2023-11-19T13:23:49;21.13;;;2.77;;
16826;SDS011;8530;49.540;8.576;2023-11-19T13:26:16;4.23;;;2.00;;
16826;SDS011;8530;49.540;8.576;2023-11-19T13:28:44;6.70;;;2.30;;
16826;SDS011;8530;49.540;8.576;2023-11-19T13:31:11;3.57;;;1.87;;
16826;SDS011;8530;49.540;8.576;2023-11-19T13:33:38;6.30;;;2.13;;
16826;SDS011;8530;49.540;8.576;2023-11-19T13:36:04;14.63;;;3.00;;
16826;SDS011;8530;49.540;8.576;2023-11-19T13:38:32;5.97;;;3.37;;
16826;SDS011;8530;49.540;8.576;2023-11-19T13:41:00;3.23;;;2.20;;
16826;SDS011;8530;49.540;8.576;2023-11-19T13:43:27;8.90;;;2.50;;
16826;SDS011;8530;49.540;8.576;2023-11-19T13:45:55;10.67;;;2.20;;
16826;SDS011;8530;49.540;8.576;2023-11-19T13:48:23;8.93;;;2.60;;
16826;SDS011;8530;49.540;8.576;2023-11-19T13:50:51;5.53;;;2.20;;
16826;SDS011;8530;49.540;8.576;2023-11-19T13:53:18;11.33;;;3.10;;
16826;SDS011;8530;49.540;8.576;2023-11-19T13:55:45;5.77;;;2.07;;
16826;SDS011;8530;49.540;8.576;2023-11-19T13:58:12;10.10;;;2.00;;
16826;SDS011;8530;49.540;8.576;2023-11-19T14:00:39;5.13;;;2.20;;
16826;SDS011;8530;49.540;8.576;2023-11-19T14:03:08;6.93;;;2.23;;
16826;SDS011;8530;49.540;8.576;2023-11-19T14:05:36;4.00;;;1.60;;
16826;SDS011;8530;49.540;8.576;2023-11-19T14:08:03;9.27;;;2.47;;
16826;SDS011;8530;49.540;8.576;2023-11-19T14:10:36;4.70;;;1.73;;
16826;SDS011;8530;49.540;8.576;2023-11-19T14:13:04;3.27;;;1.63;;
16826;SDS011;8530;49.540;8.576;2023-11-19T14:15:30;8.60;;;2.50;;
16826;SDS011;8530;49.540;8.576;2023-11-19T14:17:57;6.70;;;2.07;;
16826;SDS011;8530;49.540;8.576;2023-11-19T14:20:25;3.20;;;1.30;;
16826;SDS011;8530;49.540;8.576;2023-11-19T14:22:52;3.77;;;1.80;;
16826;SDS011;8530;49.540;8.576;2023-11-19T14:25:18;3.90;;;2.00;;
16826;SDS011;8530;49.540;8.576;2023-11-19T14:27:46;4.23;;;1.97;;
16826;SDS011;8530;49.540;8.576;2023-11-19T14:30:13;4.97;;;1.67;;
16826;SDS011;8530;49.540;8.576;2023-11-19T14:32:41;5.00;;;2.17;;
16826;SDS011;8530;49.540;8.576;2023-11-19T14:35:10;4.50;;;1.93;;
16826;SDS011;8530;49.540;8.576;2023-11-19T14:37:39;5.93;;;1.50;;
16826;SDS011;8530;49.540;8.576;2023-11-19T14:40:06;10.03;;;2.47;;
16826;SDS011;8530;49.540;8.576;2023-11-19T14:42:36;3.90;;;1.93;;
16826;SDS011;8530;49.540;8.576;2023-11-19T14:45:04;4.20;;;2.70;;
16826;SDS011;8530;49.540;8.576;2023-11-19T14:47:31;9.80;;;2.97;;
16826;SDS011;8530;49.540;8.576;2023-11-19T14:49:58;14.80;;;3.77;;
16826;SDS011;8530;49.540;8.576;2023-11-19T14:52:25;5.20;;;2.00;;
16826;SDS011;8530;49.540;8.576;2023-11-19T14:54:53;4.43;;;2.30;;
16826;SDS011;8530;49.540;8.576;2023-11-19T14:57:21;8.03;;;1.70;;
16826;SDS011;8530;49.540;8.576;2023-11-19T14:59:48;3.97;;;2.03;;
16826;SDS011;8530;49.540;8.576;2023-11-19T15:02:15;5.87;;;2.20;;
16826;SDS011;8530;49.540;8.576;2023-11-19T15:04:41;2.80;;;1.80;;
16826;SDS011;8530;49.540;8.576;2023-11-19T15:07:09;2.30;;;1.60;;
16826;SDS011;8530;49.540;8.576;2023-11-19T15:09:36;3.60;;;2.00;;
16826;SDS011;8530;49.540;8.576;2023-11-19T15:12:05;5.50;;;2.17;;
16826;SDS011;8530;49.540;8.576;2023-11-19T15:14:32;3.67;;;2.20;;